Time;durP1;ratioP1;P1;durP2;ratioP2;P2;SDS_P1;SDS_P2;PMS_P1;PMS_P2;Temp;Humidity;BMP_temperature;BMP_pressure;BME280_temperature;BME280_humidity;BME280_pressure;Samples;Min_cycle;Max_cycle;Signal;HPM_P1;HPM_P2
2023/06/27 00:04:39;;;;;;;3.50;2.45;;;28.20;76.40;;;;;;10774887;33;20020;-71
2023/06/27 00:10:41;;;;;;;4.57;3.22;;;28.20;76.50;;;;;;10788506;33;20417;-71
2023/06/27 00:16:43;;;;;;;5.95;3.67;;;28.00;76.70;;;;;;10787841;33;20021;-71
2023/06/27 00:22:46;;;;;;;4.37;3.03;;;27.90;76.80;;;;;;10788139;33;20020;-71
2023/06/27 00:28:48;;;;;;;4.62;2.40;;;27.90;76.90;;;;;;10786864;33;20017;-71
2023/06/27 00:34:51;;;;;;;5.57;4.15;;;28.00;77.30;;;;;;10787852;33;20036;-71
2023/06/27 00:40:53;;;;;;;3.05;2.20;;;28.00;77.10;;;;;;10784446;33;20012;-71
2023/06/27 00:46:55;;;;;;;4.65;3.22;;;28.00;77.10;;;;;;10773699;33;20028;-71
2023/06/27 00:52:59;;;;;;;8.07;3.75;;;28.00;77.90;;;;;;10762305;33;20036;-71
2023/06/27 00:59:02;;;;;;;7.40;3.30;;;28.00;77.50;;;;;;10784063;33;20051;-71
2023/06/27 01:05:06;;;;;;;7.07;4.32;;;28.00;77.80;;;;;;10774222;33;20024;-71
2023/06/27 01:11:19;;;;;;;6.25;3.28;;;28.00;77.30;;;;;;10787137;33;20016;-71
2023/06/27 01:17:22;;;;;;;7.10;4.05;;;27.90;76.70;;;;;;10790416;33;20052;-71
2023/06/27 01:23:33;;;;;;;5.72;4.05;;;27.90;76.30;;;;;;10789479;33;20016;-71
2023/06/27 01:29:35;;;;;;;6.53;4.00;;;27.80;76.10;;;;;;10779960;33;20362;-71
2023/06/27 01:35:42;;;;;;;6.95;4.45;;;27.60;76.60;;;;;;10793041;33;20025;-71
2023/06/27 01:41:48;;;;;;;6.82;2.90;;;27.50;76.80;;;;;;10792440;33;20390;-71
2023/06/27 01:47:51;;;;;;;5.10;3.20;;;27.40;76.90;;;;;;10792600;33;20378;-73
2023/06/27 01:53:53;;;;;;;4.60;2.60;;;27.40;76.80;;;;;;10792392;33;20098;-71
2023/06/27 01:59:55;;;;;;;5.32;3.33;;;27.40;76.90;;;;;;10779256;33;20032;-71
2023/06/27 02:05:58;;;;;;;7.05;3.55;;;27.30;76.80;;;;;;10792065;33;20024;-71
2023/06/27 02:12:00;;;;;;;5.37;2.58;;;27.30;76.70;;;;;;10791990;33;20038;-71
2023/06/27 02:18:04;;;;;;;7.10;4.12;;;27.30;76.70;;;;;;10791698;33;20052;-71
2023/06/27 02:24:06;;;;;;;4.95;3.22;;;27.20;76.70;;;;;;10790966;33;20390;-71
2023/06/27 02:30:08;;;;;;;5.35;3.72;;;27.20;77.40;;;;;;10791434;33;20024;-71
2023/06/27 02:36:11;;;;;;;6.57;5.20;;;27.20;78.10;;;;;;10791393;33;20047;-74
2023/06/27 02:42:13;;;;;;;6.30;4.65;;;27.10;78.60;;;;;;10787967;33;20043;-71
2023/06/27 02:48:15;;;;;;;8.57;4.12;;;27.10;78.80;;;;;;10788768;33;20539;-72
2023/06/27 02:54:17;;;;;;;7.93;4.93;;;27.20;78.90;;;;;;10777847;33;20436;-73
2023/06/27 03:00:20;;;;;;;6.55;4.43;;;27.20;78.90;;;;;;10773697;33;20016;-72
2023/06/27 03:06:22;;;;;;;6.47;4.70;;;27.10;79.50;;;;;;10790396;33;20351;-71
2023/06/27 03:12:24;;;;;;;9.88;4.30;;;27.00;79.50;;;;;;10790335;33;20012;-72
2023/06/27 03:18:31;;;;;;;10.30;4.47;;;27.00;79.50;;;;;;10789994;33;20043;-72
2023/06/27 03:24:53;;;;;;;6.30;4.15;;;26.90;79.40;;;;;;10789748;33;20008;-72
2023/06/27 03:30:55;;;;;;;5.85;3.67;;;26.80;79.30;;;;;;10786082;33;20457;-72
2023/06/27 03:36:57;;;;;;;7.50;4.35;;;26.80;79.70;;;;;;10784900;33;20025;-72
2023/06/27 03:43:00;;;;;;;5.78;4.22;;;26.80;79.90;;;;;;10789420;33;20418;-72
2023/06/27 03:49:02;;;;;;;8.15;5.18;;;26.80;79.70;;;;;;10789307;33;20016;-72
2023/06/27 03:55:05;;;;;;;7.53;4.47;;;26.90;79.40;;;;;;10788930;33;20021;-71
2023/06/27 04:01:07;;;;;;;5.18;3.30;;;26.90;79.30;;;;;;10785974;33;20020;-72
2023/06/27 04:07:09;;;;;;;8.90;5.82;;;26.90;79.70;;;;;;10788565;33;20016;-72
2023/06/27 04:13:21;;;;;;;6.65;4.07;;;26.90;79.30;;;;;;10784935;33;20098;-72
2023/06/27 04:19:23;;;;;;;23.10;5.43;;;26.90;79.50;;;;;;10785135;33;20047;-72
2023/06/27 04:25:31;;;;;;;7.60;5.65;;;26.90;80.20;;;;;;10784831;33;20170;-72
2023/06/27 04:31:33;;;;;;;8.48;5.68;;;26.80;80.10;;;;;;10787978;33;20047;-72
2023/06/27 04:37:37;;;;;;;9.32;4.53;;;26.80;80.10;;;;;;10787949;33;20047;-71
2023/06/27 04:43:39;;;;;;;8.32;4.85;;;26.80;79.90;;;;;;10787748;33;20031;-72
2023/06/27 04:50:00;;;;;;;6.72;5.15;;;26.80;79.90;;;;;;10787239;33;20337;-71
2023/06/27 04:56:03;;;;;;;10.18;5.78;;;26.80;80.00;;;;;;10774090;33;20032;-72
2023/06/27 05:02:05;;;;;;;7.50;5.18;;;26.90;80.40;;;;;;10774041;33;20032;-72
2023/06/27 05:08:07;;;;;;;7.47;4.90;;;26.90;80.70;;;;;;10787221;33;20330;-71
2023/06/27 05:14:09;;;;;;;9.23;6.95;;;27.10;80.70;;;;;;10787084;33;20017;-72
2023/06/27 05:20:12;;;;;;;9.45;5.70;;;27.10;80.80;;;;;;10785499;33;20052;-72
2023/06/27 05:26:15;;;;;;;11.68;6.85;;;27.00;81.00;;;;;;10785085;33;20394;-72
2023/06/27 05:32:48;;;;;;;10.48;7.28;;;27.00;81.20;;;;;;10784760;33;20074;-72
2023/06/27 05:38:56;;;;;;;11.30;8.40;;;27.00;81.70;;;;;;10786620;33;20017;-72
2023/06/27 05:45:01;;;;;;;12.55;6.93;;;27.20;81.50;;;;;;10783870;33;20051;-72
2023/06/27 05:51:03;;;;;;;8.45;6.10;;;27.30;81.30;;;;;;10773142;33;20039;-72
2023/06/27 05:57:06;;;;;;;10.70;7.20;;;27.30;81.50;;;;;;10785918;33;20096;-72
2023/06/27 06:03:08;;;;;;;10.95;8.15;;;27.30;81.90;;;;;;10790884;33;20047;-73
2023/06/27 06:09:10;;;;;;;13.75;8.85;;;27.40;81.90;;;;;;10779693;32;20040;-72
2023/06/27 06:15:12;;;;;;;11.32;7.82;;;27.40;82.00;;;;;;10791781;33;20060;-73
2023/06/27 06:21:14;;;;;;;10.38;8.05;;;27.50;81.80;;;;;;10787732;33;20021;-72
2023/06/27 06:27:16;;;;;;;10.48;8.65;;;27.60;81.70;;;;;;10778082;33;20322;-74
2023/06/27 06:33:18;;;;;;;13.10;9.43;;;27.80;81.60;;;;;;10791068;33;20017;-72
2023/06/27 06:39:20;;;;;;;10.48;7.28;;;27.90;81.20;;;;;;10791112;33;20039;-72
2023/06/27 06:45:23;;;;;;;9.23;7.05;;;27.90;80.90;;;;;;10777890;33;20074;-72
2023/06/27 06:51:25;;;;;;;11.73;10.23;;;27.80;80.80;;;;;;10790890;33;20020;-73
2023/06/27 06:57:27;;;;;;;12.13;8.40;;;27.80;81.10;;;;;;10790732;33;20047;-73
2023/06/27 07:03:30;;;;;;;9.55;6.50;;;28.00;81.10;;;;;;10790457;33;20051;-72
2023/06/27 07:09:32;;;;;;;8.63;7.15;;;28.20;80.60;;;;;;10783688;32;20060;-72
2023/06/27 07:15:34;;;;;;;9.20;7.32;;;28.40;80.30;;;;;;10749696;33;20008;-72
2023/06/27 07:21:37;;;;;;;9.63;6.22;;;28.60;79.70;;;;;;10753380;33;20052;-73
2023/06/27 07:27:39;;;;;;;11.15;6.75;;;28.80;79.10;;;;;;10768070;27;20028;-74
2023/06/27 07:33:41;;;;;;;8.57;5.62;;;28.90;79.30;;;;;;10772581;33;20012;-74
2023/06/27 07:39:43;;;;;;;9.05;6.37;;;28.90;78.60;;;;;;10789395;33;20054;-73
2023/06/27 07:45:45;;;;;;;6.45;5.20;;;29.00;78.60;;;;;;10789141;33;20051;-74
2023/06/27 07:51:51;;;;;;;7.35;4.53;;;28.90;79.10;;;;;;10786259;33;20025;-74
2023/06/27 07:57:53;;;;;;;9.52;7.03;;;28.90;79.10;;;;;;10788906;33;20020;-73
2023/06/27 08:03:56;;;;;;;8.00;5.30;;;29.00;78.60;;;;;;10788676;33;20051;-74
2023/06/27 08:09:58;;;;;;;8.38;6.80;;;29.20;78.00;;;;;;10788583;33;20331;-74
2023/06/27 08:16:00;;;;;;;8.70;6.57;;;29.30;76.70;;;;;;10788486;33;20021;-74
2023/06/27 08:22:02;;;;;;;8.93;6.80;;;29.30;76.60;;;;;;10787712;33;20047;-74
2023/06/27 08:28:05;;;;;;;13.05;7.00;;;29.30;75.80;;;;;;10784286;33;20020;-74
2023/06/27 08:34:07;;;;;;;8.90;5.57;;;29.30;75.90;;;;;;10776186;33;20021;-74
2023/06/27 08:40:09;;;;;;;7.93;6.18;;;29.30;76.00;;;;;;10787946;33;20024;-75
2023/06/27 08:46:11;;;;;;;8.77;6.30;;;29.50;75.30;;;;;;10774597;33;20024;-75
2023/06/27 08:52:18;;;;;;;7.82;5.82;;;29.60;75.60;;;;;;10787747;33;20029;-73
2023/06/27 08:58:26;;;;;;;7.80;5.20;;;29.80;75.70;;;;;;10787481;33;20024;-74
2023/06/27 09:04:28;;;;;;;8.45;5.72;;;29.90;74.80;;;;;;10787309;33;20047;-75
2023/06/27 09:10:30;;;;;;;7.25;5.05;;;30.10;74.10;;;;;;10785509;33;20017;-75
2023/06/27 09:16:34;;;;;;;9.30;5.10;;;30.30;72.70;;;;;;10784666;33;20071;-75
2023/06/27 09:22:37;;;;;;;7.53;5.28;;;30.40;71.80;;;;;;10787011;33;20035;-75
2023/06/27 09:28:50;;;;;;;6.82;4.25;;;30.60;71.60;;;;;;10786759;33;20326;-74
2023/06/27 09:34:52;;;;;;;7.50;4.30;;;30.70;71.40;;;;;;10776075;33;20033;-75
2023/06/27 09:41:02;;;;;;;7.97;4.43;;;30.80;70.60;;;;;;10792957;33;20403;-75
2023/06/27 09:47:10;;;;;;;7.53;4.30;;;31.00;70.10;;;;;;10792815;33;20020;-74
2023/06/27 09:53:12;;;;;;;9.10;4.97;;;31.20;68.70;;;;;;10792714;33;20013;-73
2023/06/27 09:59:17;;;;;;;6.22;4.40;;;31.40;68.80;;;;;;10792262;33;20043;-74
2023/06/27 10:05:21;;;;;;;7.37;4.78;;;31.30;67.70;;;;;;10774461;32;20032;-74
2023/06/27 10:11:25;;;;;;;5.18;3.75;;;31.50;66.80;;;;;;10792131;33;20042;-75
2023/06/27 10:17:28;;;;;;;11.25;4.97;;;31.60;66.70;;;;;;10791970;33;20012;-73
2023/06/27 10:23:32;;;;;;;6.82;4.07;;;31.70;65.80;;;;;;10787893;33;20024;-75
2023/06/27 10:29:40;;;;;;;6.62;4.18;;;31.70;66.80;;;;;;10791961;33;20346;-72
2023/06/27 10:35:56;;;;;;;6.07;3.92;;;31.90;65.60;;;;;;10778017;33;20059;-74
2023/06/27 10:42:04;;;;;;;9.02;5.85;;;32.00;66.30;;;;;;10789355;33;20029;-74
2023/06/27 10:48:07;;;;;;;9.35;5.07;;;32.00;66.40;;;;;;10788414;33;20024;-74
2023/06/27 10:54:09;;;;;;;7.15;4.20;;;32.20;63.90;;;;;;10790877;33;20334;-74
2023/06/27 11:00:32;;;;;;;5.75;3.67;;;32.30;61.30;;;;;;10777070;33;20334;-73
2023/06/27 11:06:41;;;;;;;6.05;4.30;;;32.60;61.30;;;;;;10776958;33;20334;-73
2023/06/27 11:12:43;;;;;;;5.47;3.58;;;32.70;61.00;;;;;;10790337;33;20056;-73
2023/06/27 11:18:45;;;;;;;6.12;3.62;;;32.80;59.60;;;;;;10777858;32;20368;-74
2023/06/27 11:24:48;;;;;;;6.28;3.87;;;33.00;58.20;;;;;;10776905;33;20043;-75
2023/06/27 11:30:59;;;;;;;5.97;3.62;;;33.10;57.40;;;;;;10788742;33;20355;-74
2023/06/27 11:37:01;;;;;;;6.55;3.45;;;33.20;56.80;;;;;;10789600;33;20028;-74
2023/06/27 11:43:04;;;;;;;6.18;4.35;;;33.40;56.40;;;;;;10789396;33;20056;-75
2023/06/27 11:49:06;;;;;;;5.50;4.15;;;33.60;56.20;;;;;;10789202;33;20020;-75
2023/06/27 11:55:08;;;;;;;5.43;3.53;;;33.60;56.50;;;;;;10788954;33;20338;-75
2023/06/27 12:01:13;;;;;;;6.93;4.15;;;33.80;57.20;;;;;;10784444;33;20028;-71
2023/06/27 12:07:19;;;;;;;5.62;3.53;;;33.70;59.90;;;;;;10788622;33;20024;-75
2023/06/27 12:13:21;;;;;;;;;;;33.70;58.70;;;;;;10788794;33;20012;-73
2023/06/27 12:19:24;;;;;;;8.93;4.43;;;33.80;58.00;;;;;;10787912;33;20250;-74
2023/06/27 12:25:26;;;;;;;6.15;4.60;;;33.70;58.50;;;;;;10784406;33;20032;-71
2023/06/27 12:31:28;;;;;;;8.00;5.00;;;33.90;57.50;;;;;;10788086;33;20029;-74
2023/06/27 12:37:33;;;;;;;7.32;4.03;;;34.00;55.80;;;;;;10788005;33;20047;-74
2023/06/27 12:43:35;;;;;;;5.05;3.08;;;33.90;55.00;;;;;;10758502;33;20284;-73
2023/06/27 12:49:39;;;;;;;5.97;3.22;;;34.10;53.50;;;;;;10787751;33;20399;-74
2023/06/27 12:55:41;;;;;;;6.45;3.80;;;34.10;55.40;;;;;;10787553;33;20063;-73
2023/06/27 13:01:55;;;;;;;11.12;4.35;;;34.10;55.40;;;;;;10787591;33;20056;-75
2023/06/27 13:07:57;;;;;;;5.15;3.72;;;34.30;54.90;;;;;;10788095;33;20406;-74
2023/06/27 13:14:00;;;;;;;6.60;2.75;;;34.20;55.10;;;;;;10793727;33;20039;-72
2023/06/27 13:20:03;;;;;;;7.65;5.35;;;34.30;54.60;;;;;;10789666;33;20020;-74
2023/06/27 13:26:05;;;;;;;8.60;3.92;;;34.30;54.10;;;;;;10780436;32;20040;-75
2023/06/27 13:32:08;;;;;;;3.97;2.97;;;34.20;53.30;;;;;;10792092;33;20043;-74
2023/06/27 13:38:10;;;;;;;8.70;3.83;;;34.00;52.50;;;;;;10779976;33;20017;-74
2023/06/27 13:44:12;;;;;;;7.95;4.35;;;34.00;56.40;;;;;;10792773;33;20020;-74
2023/06/27 13:50:14;;;;;;;6.70;3.12;;;33.80;56.80;;;;;;10792654;33;20409;-75
2023/06/27 13:56:17;;;;;;;5.25;3.65;;;33.30;57.20;;;;;;10792257;33;20016;-74
2023/06/27 14:02:19;;;;;;;5.40;3.58;;;33.00;58.20;;;;;;10791979;33;20024;-73
2023/06/27 14:08:35;;;;;;;6.90;3.70;;;32.80;59.20;;;;;;10780357;33;20342;-73
2023/06/27 14:14:37;;;;;;;4.28;2.92;;;32.40;59.90;;;;;;10791585;33;20024;-75
2023/06/27 14:20:40;;;;;;;6.47;3.45;;;32.30;60.10;;;;;;10754714;33;20051;-74
2023/06/27 14:26:42;;;;;;;7.05;3.40;;;32.10;60.30;;;;;;10738925;33;20055;-76
2023/06/27 14:32:44;;;;;;;6.25;3.42;;;32.00;61.20;;;;;;10751501;33;20060;-74
2023/06/27 14:38:46;;;;;;;4.25;2.95;;;31.80;61.50;;;;;;10754809;33;20017;-74
2023/06/27 14:44:48;;;;;;;6.45;2.80;;;31.70;61.90;;;;;;10754556;33;20308;-74
2023/06/27 14:50:50;;;;;;;5.28;2.80;;;31.60;62.60;;;;;;10754465;33;20043;-74
2023/06/27 14:56:52;;;;;;;4.05;2.45;;;31.50;62.70;;;;;;10754259;33;20411;-72
2023/06/27 15:02:55;;;;;;;6.25;3.30;;;31.40;62.90;;;;;;10756187;33;20025;-74
2023/06/27 15:08:57;;;;;;;5.18;3.10;;;31.30;63.50;;;;;;10790100;33;20059;-74
2023/06/27 15:15:00;;;;;;;5.50;3.67;;;31.20;64.60;;;;;;10786280;33;20429;-75
2023/06/27 15:21:02;;;;;;;5.93;3.70;;;31.10;65.00;;;;;;10789913;33;20020;-74
2023/06/27 15:27:04;;;;;;;9.68;3.65;;;31.20;64.90;;;;;;10412198;27;12155682;-75
2023/06/27 15:33:07;;;;;;;8.07;4.30;;;31.30;64.90;;;;;;10712817;33;20056;-72
2023/06/27 15:39:09;;;;;;;7.70;4.35;;;31.30;65.40;;;;;;10712558;33;20155;-74
2023/06/27 15:45:11;;;;;;;4.57;2.95;;;31.30;66.20;;;;;;10715732;32;20438;-74
2023/06/27 15:51:13;;;;;;;8.93;4.70;;;31.30;66.30;;;;;;10744225;33;20056;-71
2023/06/27 15:57:15;;;;;;;5.18;3.45;;;31.40;67.60;;;;;;10780204;33;20452;-69
2023/06/27 16:03:17;;;;;;;6.00;3.20;;;31.30;68.20;;;;;;10788584;33;20016;-69
2023/06/27 16:09:19;;;;;;;3.60;2.62;;;31.40;67.30;;;;;;10774388;32;20040;-74
2023/06/27 16:15:21;;;;;;;4.85;2.70;;;31.40;66.80;;;;;;10787582;33;20055;-74
2023/06/27 16:21:23;;;;;;;4.47;2.75;;;31.40;66.70;;;;;;10823440;32;20368;-71
2023/06/27 16:27:25;;;;;;;5.68;2.85;;;31.40;67.10;;;;;;10979731;32;20021;-74
2023/06/27 16:33:27;;;;;;;6.32;2.55;;;31.40;66.80;;;;;;10966129;32;20095;-72
2023/06/27 16:39:29;;;;;;;5.62;3.55;;;31.30;66.30;;;;;;10978298;32;20023;-74
2023/06/27 16:45:35;;;;;;;13.52;3.28;;;31.30;66.50;;;;;;10978798;32;20019;-73
2023/06/27 16:51:37;;;;;;;8.50;4.43;;;31.20;66.80;;;;;;10979202;32;20014;-73
2023/06/27 16:57:40;;;;;;;13.75;3.67;;;31.10;67.30;;;;;;10965173;32;20026;-72
2023/06/27 17:03:42;;;;;;;6.25;3.67;;;31.00;70.10;;;;;;10979089;32;20041;-71
2023/06/27 17:09:44;;;;;;;11.38;4.10;;;30.90;71.60;;;;;;10965336;32;20401;-73
2023/06/27 17:15:47;;;;;;;9.77;5.40;;;30.80;71.90;;;;;;10975405;32;20027;-75
2023/06/27 17:21:50;;;;;;;8.43;6.93;;;30.60;72.60;;;;;;10774236;32;20055;-71
2023/06/27 17:27:53;;;;;;;13.45;6.32;;;30.30;75.10;;;;;;10748898;33;20327;-72
2023/06/27 17:33:55;;;;;;;7.85;4.70;;;30.10;75.40;;;;;;10750215;33;20355;-69
2023/06/27 17:39:57;;;;;;;10.75;7.18;;;29.80;75.30;;;;;;10736670;33;20028;-70
2023/06/27 17:45:59;;;;;;;9.73;6.18;;;29.60;75.80;;;;;;10749920;33;20020;-72
2023/06/27 17:52:03;;;;;;;10.38;5.97;;;29.50;75.00;;;;;;10736439;33;20025;-71
2023/06/27 17:58:05;;;;;;;9.10;6.15;;;29.30;75.20;;;;;;10739552;33;20052;-70
2023/06/27 18:04:07;;;;;;;7.55;4.72;;;29.20;75.00;;;;;;10737152;33;20058;-73
2023/06/27 18:10:10;;;;;;;7.85;5.37;;;29.10;74.00;;;;;;10751386;33;20025;-74
2023/06/27 18:16:12;;;;;;;10.60;5.72;;;29.00;74.40;;;;;;10750504;33;20021;-71
2023/06/27 18:22:14;;;;;;;8.35;5.32;;;28.90;75.40;;;;;;10738282;33;20435;-73
2023/06/27 18:28:16;;;;;;;9.57;5.47;;;28.80;75.60;;;;;;10750870;33;20444;-73
2023/06/27 18:34:19;;;;;;;13.60;6.40;;;28.80;75.90;;;;;;10754480;33;20058;-73
2023/06/27 18:40:23;;;;;;;10.00;4.87;;;28.70;75.90;;;;;;10792036;33;20568;-72
2023/06/27 18:46:25;;;;;;;9.57;5.78;;;28.40;76.40;;;;;;10778429;33;20051;-77
2023/06/27 18:52:27;;;;;;;7.78;5.32;;;28.30;76.40;;;;;;10791188;33;20024;-69
2023/06/27 18:58:29;;;;;;;7.75;5.70;;;28.30;76.40;;;;;;10778338;33;20039;-72
2023/06/27 19:04:31;;;;;;;11.50;6.72;;;28.30;76.20;;;;;;10791117;33;20012;-70
2023/06/27 19:10:38;;;;;;;10.35;6.47;;;28.10;75.40;;;;;;10777296;33;20068;-72
2023/06/27 19:17:06;;;;;;;7.87;5.70;;;27.90;75.60;;;;;;10791543;33;20323;-73
2023/06/27 19:23:18;;;;;;;8.50;5.75;;;27.80;76.60;;;;;;10790438;33;20020;-73
2023/06/27 19:29:27;;;;;;;10.15;7.78;;;27.70;76.20;;;;;;10786425;33;20028;-74
2023/06/27 19:35:30;;;;;;;14.45;5.70;;;27.50;76.40;;;;;;10789721;33;20322;-74
2023/06/27 19:41:43;;;;;;;7.28;5.18;;;27.30;77.10;;;;;;10786937;33;20392;-75
2023/06/27 19:47:48;;;;;;;11.18;4.90;;;27.40;77.20;;;;;;10775491;33;20059;-73
2023/06/27 19:53:50;;;;;;;7.45;5.25;;;27.30;76.50;;;;;;10789167;33;20047;-73
2023/06/27 20:00:08;;;;;;;7.05;5.62;;;27.30;76.80;;;;;;10789069;33;20323;-71
2023/06/27 20:06:14;;;;;;;8.65;6.05;;;27.30;77.20;;;;;;10788772;33;20040;-73
2023/06/27 20:12:16;;;;;;;6.93;4.97;;;27.30;76.80;;;;;;10787826;33;20051;-74
2023/06/27 20:18:20;;;;;;;7.90;4.47;;;27.20;76.40;;;;;;10785367;33;20020;-73
2023/06/27 20:24:22;;;;;;;6.95;4.03;;;27.10;76.70;;;;;;10788282;33;20043;-73
2023/06/27 20:30:24;;;;;;;6.53;4.72;;;27.20;77.30;;;;;;10788132;33;20487;-74
2023/06/27 20:36:27;;;;;;;9.13;5.68;;;27.10;78.10;;;;;;10774642;33;20051;-70
2023/06/27 20:42:29;;;;;;;6.35;4.45;;;26.90;77.60;;;;;;10762601;33;20036;-70
2023/06/27 20:48:31;;;;;;;7.10;4.70;;;26.80;77.70;;;;;;10774485;33;20032;-74
2023/06/27 20:54:33;;;;;;;8.73;4.57;;;26.80;77.50;;;;;;10785515;33;20028;-74
2023/06/27 21:00:36;;;;;;;5.55;4.12;;;26.80;77.40;;;;;;10787657;33;20021;-70
2023/06/27 21:06:43;;;;;;;7.70;4.82;;;26.70;77.80;;;;;;10787429;33;20029;-73
2023/06/27 21:12:45;;;;;;;6.83;4.43;;;26.70;78.00;;;;;;10774329;33;20362;-73
2023/06/27 21:18:47;;;;;;;5.78;3.75;;;26.60;78.40;;;;;;10787220;33;20013;-73
2023/06/27 21:24:49;;;;;;;6.03;4.22;;;26.70;78.50;;;;;;10773930;33;20047;-74
2023/06/27 21:30:51;;;;;;;6.78;3.37;;;26.70;78.80;;;;;;10776586;33;20436;-73
2023/06/27 21:36:56;;;;;;;5.00;3.17;;;26.60;78.80;;;;;;10792587;33;20056;-74
2023/06/27 21:42:59;;;;;;;6.78;4.28;;;26.50;79.20;;;;;;10780222;33;20044;-73
2023/06/27 21:49:01;;;;;;;5.45;3.42;;;26.50;78.40;;;;;;10792780;33;20039;-74
2023/06/27 21:55:04;;;;;;;5.12;3.08;;;26.40;78.70;;;;;;10792768;33;20043;-74
2023/06/27 22:01:06;;;;;;;8.38;2.97;;;26.30;79.00;;;;;;10789857;33;20362;-72
2023/06/27 22:07:08;;;;;;;4.90;2.70;;;26.30;78.80;;;;;;10792252;33;20013;-73
2023/06/27 22:13:11;;;;;;;2.37;1.73;;;26.20;78.80;;;;;;10788276;33;20020;-72
2023/06/27 22:19:13;;;;;;;4.70;2.30;;;26.10;78.50;;;;;;10790375;33;20054;-74
2023/06/27 22:25:15;;;;;;;4.78;2.08;;;26.10;79.00;;;;;;10778749;33;20304;-74
2023/06/27 22:31:18;;;;;;;3.15;2.17;;;26.30;79.60;;;;;;10778548;33;20036;-73
2023/06/27 22:37:20;;;;;;;3.80;3.00;;;26.40;79.70;;;;;;10791488;33;20394;-74
2023/06/27 22:43:21;;;;;;;3.12;2.28;;;26.30;79.30;;;;;;10790594;33;20008;-73
2023/06/27 22:49:23;;;;;;;2.35;1.62;;;26.20;79.10;;;;;;10791225;33;20406;-74
2023/06/27 22:55:25;;;;;;;6.22;2.17;;;26.20;79.60;;;;;;10790884;33;20413;-73
2023/06/27 23:01:27;;;;;;;4.47;1.83;;;26.30;79.80;;;;;;10790799;33;20043;-73
2023/06/27 23:07:29;;;;;;;3.58;1.35;;;26.20;80.00;;;;;;10777165;33;20051;-74
2023/06/27 23:13:31;;;;;;;6.90;1.60;;;26.20;80.30;;;;;;10790491;33;20345;-73
2023/06/27 23:19:34;;;;;;;1.95;1.05;;;26.10;80.50;;;;;;10790359;33;20048;-74
2023/06/27 23:25:46;;;;;;;4.07;1.33;;;26.10;81.10;;;;;;10790175;33;20043;-74
2023/06/27 23:31:48;;;;;;;3.50;1.33;;;26.30;80.80;;;;;;10791249;27;20043;-75
2023/06/27 23:37:53;;;;;;;0.98;0.62;;;26.30;80.70;;;;;;10789781;33;20035;-74
2023/06/27 23:43:56;;;;;;;1.85;1.12;;;26.20;80.70;;;;;;10775840;33;20032;-74
2023/06/27 23:49:58;;;;;;;1.65;1.10;;;26.10;81.20;;;;;;10776304;33;20043;-74
2023/06/27 23:56:00;;;;;;;1.92;1.00;;;26.00;81.40;;;;;;10771885;32;20036;-74
